sensor_id;sensor_type;location;lat;lon;timestamp;pressure;altitude;pressure_sealevel;temperature;humidity
48386;BME280;34644;47.964;7.982;2023-02-14T00:04:34;98318.22;;;15.98;55.90
48386;BME280;34644;47.964;7.982;2023-02-14T00:11:37;98315.78;;;15.97;55.90
48386;BME280;34644;47.964;7.982;2023-02-14T00:18:38;98314.19;;;15.96;56.02
48386;BME280;34644;47.964;7.982;2023-02-14T00:25:56;98310.47;;;15.97;56.22
48386;BME280;34644;47.964;7.982;2023-02-14T00:32:56;98298.47;;;15.94;56.22
48386;BME280;34644;47.964;7.982;2023-02-14T00:39:57;98296.59;;;15.95;56.14
48386;BME280;34644;47.964;7.982;2023-02-14T00:46:57;98282.50;;;15.94;56.51
48386;BME280;34644;47.964;7.982;2023-02-14T00:53:57;98286.19;;;15.93;56.52
48386;BME280;34644;47.964;7.982;2023-02-14T01:00:58;98288.06;;;15.93;56.36
48386;BME280;34644;47.964;7.982;2023-02-14T01:07:58;98284.78;;;15.90;56.54
48386;BME280;34644;47.964;7.982;2023-02-14T01:14:58;98283.19;;;15.89;56.71
48386;BME280;34644;47.964;7.982;2023-02-14T01:21:59;98278.91;;;15.88;56.73
48386;BME280;34644;47.964;7.982;2023-02-14T01:28:59;98279.69;;;15.89;56.87
48386;BME280;34644;47.964;7.982;2023-02-14T01:36:02;98281.78;;;15.87;56.67
48386;BME280;34644;47.964;7.982;2023-02-14T01:43:02;98280.97;;;15.86;56.67
48386;BME280;34644;47.964;7.982;2023-02-14T01:50:11;98279.34;;;15.85;56.96
48386;BME280;34644;47.964;7.982;2023-02-14T01:57:13;98275.06;;;15.84;57.01
48386;BME280;34644;47.964;7.982;2023-02-14T02:04:18;98276.91;;;15.84;56.77
48386;BME280;34644;47.964;7.982;2023-02-14T02:11:21;98277.94;;;15.83;56.88
48386;BME280;34644;47.964;7.982;2023-02-14T02:54:13;98234.47;;;15.77;57.05
48386;BME280;34644;47.964;7.982;2023-02-14T03:01:20;98230.16;;;15.76;57.13
48386;BME280;34644;47.964;7.982;2023-02-14T03:08:22;98231.44;;;15.73;57.12
48386;BME280;34644;47.964;7.982;2023-02-14T03:22:30;98223.25;;;15.75;57.20
48386;BME280;34644;47.964;7.982;2023-02-14T03:36:40;98224.78;;;15.83;56.98
48386;BME280;34644;47.964;7.982;2023-02-14T03:43:43;98224.59;;;15.96;56.18
48386;BME280;34644;47.964;7.982;2023-02-14T03:50:46;98224.13;;;15.99;56.31
48386;BME280;34644;47.964;7.982;2023-02-14T04:05:16;98225.75;;;16.00;56.36
48386;BME280;34644;47.964;7.982;2023-02-14T04:12:18;98223.91;;;16.01;56.45
48386;BME280;34644;47.964;7.982;2023-02-14T04:19:19;98220.66;;;15.99;56.53
48386;BME280;34644;47.964;7.982;2023-02-14T04:26:22;98228.66;;;15.99;56.54
48386;BME280;34644;47.964;7.982;2023-02-14T04:33:22;98234.78;;;15.99;56.46
48386;BME280;34644;47.964;7.982;2023-02-14T04:40:23;98237.66;;;15.98;56.84
48386;BME280;34644;47.964;7.982;2023-02-14T04:47:23;98234.41;;;15.35;47.79
48386;BME280;34644;47.964;7.982;2023-02-14T04:54:23;98236.84;;;14.62;46.16
48386;BME280;34644;47.964;7.982;2023-02-14T05:01:23;98240.38;;;15.49;49.71
48386;BME280;34644;47.964;7.982;2023-02-14T05:08:24;98232.94;;;15.69;51.30
48386;BME280;34644;47.964;7.982;2023-02-14T05:15:24;98231.22;;;15.75;52.00
48386;BME280;34644;47.964;7.982;2023-02-14T05:22:24;98227.91;;;15.80;52.27
48386;BME280;34644;47.964;7.982;2023-02-14T05:29:24;98226.97;;;15.86;52.38
48386;BME280;34644;47.964;7.982;2023-02-14T05:36:25;98224.69;;;15.89;52.86
48386;BME280;34644;47.964;7.982;2023-02-14T05:43:25;98232.91;;;13.96;42.90
48386;BME280;34644;47.964;7.982;2023-02-14T05:50:25;98231.41;;;12.91;40.72
48386;BME280;34644;47.964;7.982;2023-02-14T05:57:27;98237.00;;;12.09;40.04
48386;BME280;34644;47.964;7.982;2023-02-14T06:04:27;98249.06;;;11.37;40.50
48386;BME280;34644;47.964;7.982;2023-02-14T06:11:27;98253.56;;;13.55;41.81
48386;BME280;34644;47.964;7.982;2023-02-14T06:18:28;98257.00;;;14.45;43.35
48386;BME280;34644;47.964;7.982;2023-02-14T06:25:29;98252.31;;;15.58;42.31
48386;BME280;34644;47.964;7.982;2023-02-14T06:32:30;98256.94;;;15.93;43.29
48386;BME280;34644;47.964;7.982;2023-02-14T06:39:30;98262.66;;;16.20;44.04
48386;BME280;34644;47.964;7.982;2023-02-14T06:46:30;98265.22;;;16.27;45.02
48386;BME280;34644;47.964;7.982;2023-02-14T06:53:30;98266.16;;;16.33;46.16
48386;BME280;34644;47.964;7.982;2023-02-14T07:00:31;98265.69;;;16.36;46.58
48386;BME280;34644;47.964;7.982;2023-02-14T07:07:31;98261.53;;;16.40;46.95
48386;BME280;34644;47.964;7.982;2023-02-14T07:14:31;98273.31;;;16.44;47.45
48386;BME280;34644;47.964;7.982;2023-02-14T07:21:31;98269.97;;;16.49;48.00
48386;BME280;34644;47.964;7.982;2023-02-14T07:28:32;98266.31;;;14.54;40.76
48386;BME280;34644;47.964;7.982;2023-02-14T07:35:32;98266.72;;;15.32;44.22
48386;BME280;34644;47.964;7.982;2023-02-14T07:42:34;98248.63;;;15.89;44.01
48386;BME280;34644;47.964;7.982;2023-02-14T07:49:34;98260.56;;;15.99;45.33
48386;BME280;34644;47.964;7.982;2023-02-14T07:56:35;98260.78;;;16.09;46.17
48386;BME280;34644;47.964;7.982;2023-02-14T08:03:35;98254.91;;;16.19;46.80
48386;BME280;34644;47.964;7.982;2023-02-14T08:10:35;98256.53;;;16.32;47.40
48386;BME280;34644;47.964;7.982;2023-02-14T08:17:36;98258.19;;;16.56;47.56
48386;BME280;34644;47.964;7.982;2023-02-14T08:24:36;98255.84;;;16.83;47.62
48386;BME280;34644;47.964;7.982;2023-02-14T08:31:36;98254.34;;;16.99;47.70
48386;BME280;34644;47.964;7.982;2023-02-14T08:38:37;98252.47;;;17.12;47.94
48386;BME280;34644;47.964;7.982;2023-02-14T08:45:37;98250.81;;;17.23;48.27
48386;BME280;34644;47.964;7.982;2023-02-14T08:52:38;98241.66;;;17.30;48.51
48386;BME280;34644;47.964;7.982;2023-02-14T08:59:38;98238.94;;;17.42;48.56
48386;BME280;34644;47.964;7.982;2023-02-14T09:06:39;98236.00;;;17.56;48.66
48386;BME280;34644;47.964;7.982;2023-02-14T09:13:40;98231.97;;;17.70;48.75
48386;BME280;34644;47.964;7.982;2023-02-14T09:20:40;98225.06;;;17.86;48.67
48386;BME280;34644;47.964;7.982;2023-02-14T09:27:43;98230.44;;;18.03;48.85
48386;BME280;34644;47.964;7.982;2023-02-14T09:34:43;98231.63;;;18.12;48.88
48386;BME280;34644;47.964;7.982;2023-02-14T09:49:30;98238.66;;;18.35;49.22
48386;BME280;34644;47.964;7.982;2023-02-14T09:56:34;98235.09;;;18.47;48.84
48386;BME280;34644;47.964;7.982;2023-02-14T10:03:50;98242.03;;;18.65;48.89
48386;BME280;34644;47.964;7.982;2023-02-14T10:11:13;98229.69;;;18.80;48.84
48386;BME280;34644;47.964;7.982;2023-02-14T10:18:26;98224.00;;;18.94;48.72
48386;BME280;34644;47.964;7.982;2023-02-14T10:25:39;98222.03;;;19.06;48.68
48386;BME280;34644;47.964;7.982;2023-02-14T10:32:51;98216.88;;;19.22;48.83
48386;BME280;34644;47.964;7.982;2023-02-14T10:40:09;98212.50;;;19.38;48.52
48386;BME280;34644;47.964;7.982;2023-02-14T10:54:25;98191.59;;;19.62;48.41
48386;BME280;34644;47.964;7.982;2023-02-14T11:01:25;98187.97;;;19.73;48.46
48386;BME280;34644;47.964;7.982;2023-02-14T11:08:39;98174.75;;;19.88;47.95
48386;BME280;34644;47.964;7.982;2023-02-14T11:15:40;98158.78;;;19.99;47.86
48386;BME280;34644;47.964;7.982;2023-02-14T11:22:40;98157.53;;;20.12;48.05
48386;BME280;34644;47.964;7.982;2023-02-14T11:29:44;98145.81;;;20.23;47.80
48386;BME280;34644;47.964;7.982;2023-02-14T11:36:47;98134.66;;;20.36;47.86
48386;BME280;34644;47.964;7.982;2023-02-14T11:43:47;98133.63;;;20.48;47.50
48386;BME280;34644;47.964;7.982;2023-02-14T11:50:55;98128.56;;;20.51;47.71
48386;BME280;34644;47.964;7.982;2023-02-14T11:57:57;98124.59;;;20.59;47.49
48386;BME280;34644;47.964;7.982;2023-02-14T12:04:59;98115.78;;;20.64;47.69
48386;BME280;34644;47.964;7.982;2023-02-14T12:12:03;98098.81;;;19.95;45.75
48386;BME280;34644;47.964;7.982;2023-02-14T12:19:18;98099.38;;;17.99;41.83
48386;BME280;34644;47.964;7.982;2023-02-14T12:26:40;98094.94;;;17.71;40.15
48386;BME280;34644;47.964;7.982;2023-02-14T12:33:42;98078.63;;;17.50;40.63
48386;BME280;34644;47.964;7.982;2023-02-14T12:40:50;98079.38;;;17.46;40.54
48386;BME280;34644;47.964;7.982;2023-02-14T12:48:03;98071.56;;;18.34;39.50
48386;BME280;34644;47.964;7.982;2023-02-14T13:24:11;98027.44;;;18.98;45.56
48386;BME280;34644;47.964;7.982;2023-02-14T13:31:14;98019.19;;;19.00;45.93
48386;BME280;34644;47.964;7.982;2023-02-14T13:38:14;98018.34;;;18.99;46.00
48386;BME280;34644;47.964;7.982;2023-02-14T13:52:51;98003.94;;;19.00;46.40
48386;BME280;34644;47.964;7.982;2023-02-14T14:07:17;97996.97;;;18.99;46.52
48386;BME280;34644;47.964;7.982;2023-02-14T14:14:25;97990.03;;;18.98;46.82
48386;BME280;34644;47.964;7.982;2023-02-14T14:22:12;97991.34;;;18.95;46.80
48386;BME280;34644;47.964;7.982;2023-02-14T14:28:47;97986.50;;;18.92;47.04
48386;BME280;34644;47.964;7.982;2023-02-14T14:35:51;97984.09;;;18.91;47.05
48386;BME280;34644;47.964;7.982;2023-02-14T14:42:52;97993.69;;;18.87;47.25
48386;BME280;34644;47.964;7.982;2023-02-14T14:50:02;97982.66;;;18.83;47.34
48386;BME280;34644;47.964;7.982;2023-02-14T14:57:06;97987.69;;;18.79;47.55
48386;BME280;34644;47.964;7.982;2023-02-14T15:04:07;97987.66;;;18.74;47.50
48386;BME280;34644;47.964;7.982;2023-02-14T15:11:12;97981.19;;;18.70;47.54
48386;BME280;34644;47.964;7.982;2023-02-14T15:18:35;97984.88;;;18.64;47.73
48386;BME280;34644;47.964;7.982;2023-02-14T15:25:35;97981.63;;;18.57;47.82
48386;BME280;34644;47.964;7.982;2023-02-14T15:32:36;97976.22;;;18.52;47.93
48386;BME280;34644;47.964;7.982;2023-02-14T15:39:39;97971.91;;;18.46;48.13
48386;BME280;34644;47.964;7.982;2023-02-14T15:46:39;97966.19;;;18.37;48.27
48386;BME280;34644;47.964;7.982;2023-02-14T15:53:59;97968.25;;;18.30;48.32
48386;BME280;34644;47.964;7.982;2023-02-14T16:01:00;97980.44;;;18.20;48.47
48386;BME280;34644;47.964;7.982;2023-02-14T16:08:05;97983.19;;;18.08;48.81
48386;BME280;34644;47.964;7.982;2023-02-14T16:22:27;97985.91;;;17.92;49.01
48386;BME280;34644;47.964;7.982;2023-02-14T16:29:37;97993.53;;;17.83;49.16
48386;BME280;34644;47.964;7.982;2023-02-14T16:36:40;97991.28;;;17.75;49.28
48386;BME280;34644;47.964;7.982;2023-02-14T16:43:41;97998.63;;;17.67;49.32
48386;BME280;34644;47.964;7.982;2023-02-14T16:50:41;97998.81;;;17.61;49.45
48386;BME280;34644;47.964;7.982;2023-02-14T16:57:42;97995.25;;;17.55;49.47
48386;BME280;34644;47.964;7.982;2023-02-14T17:04:44;97999.47;;;17.51;49.54
48386;BME280;34644;47.964;7.982;2023-02-14T17:11:46;98003.13;;;17.45;49.67
48386;BME280;34644;47.964;7.982;2023-02-14T17:18:48;98005.72;;;17.40;49.69
48386;BME280;34644;47.964;7.982;2023-02-14T17:25:49;98009.34;;;17.33;49.84
48386;BME280;34644;47.964;7.982;2023-02-14T17:32:49;98011.66;;;17.30;50.01
48386;BME280;34644;47.964;7.982;2023-02-14T17:39:51;98009.50;;;17.27;50.22
48386;BME280;34644;47.964;7.982;2023-02-14T17:46:51;98009.16;;;17.23;50.22
48386;BME280;34644;47.964;7.982;2023-02-14T17:53:53;98003.53;;;17.20;50.20
48386;BME280;34644;47.964;7.982;2023-02-14T18:00:59;98003.22;;;17.16;50.42
48386;BME280;34644;47.964;7.982;2023-02-14T18:07:59;98006.34;;;17.13;50.63
48386;BME280;34644;47.964;7.982;2023-02-14T18:15:00;97999.88;;;17.09;50.79
48386;BME280;34644;47.964;7.982;2023-02-14T18:22:00;97985.47;;;17.05;50.82
48386;BME280;34644;47.964;7.982;2023-02-14T18:29:00;97977.09;;;16.84;50.34
48386;BME280;34644;47.964;7.982;2023-02-14T18:36:09;97971.19;;;16.82;50.79
48386;BME280;34644;47.964;7.982;2023-02-14T18:43:13;97967.72;;;16.81;50.96
48386;BME280;34644;47.964;7.982;2023-02-14T18:50:13;97977.56;;;16.81;51.06
48386;BME280;34644;47.964;7.982;2023-02-14T18:57:13;97975.94;;;16.80;51.13
48386;BME280;34644;47.964;7.982;2023-02-14T19:04:13;97965.78;;;16.77;51.20
48386;BME280;34644;47.964;7.982;2023-02-14T19:11:17;97962.56;;;16.75;51.34
48386;BME280;34644;47.964;7.982;2023-02-14T19:18:18;97960.38;;;16.72;51.56
48386;BME280;34644;47.964;7.982;2023-02-14T19:25:19;97951.78;;;16.70;51.62
48386;BME280;34644;47.964;7.982;2023-02-14T19:32:19;97946.94;;;16.67;51.81
48386;BME280;34644;47.964;7.982;2023-02-14T19:39:19;97947.19;;;16.65;51.97
48386;BME280;34644;47.964;7.982;2023-02-14T19:46:20;97938.88;;;16.61;51.98
48386;BME280;34644;47.964;7.982;2023-02-14T19:53:20;97925.03;;;16.59;51.97
48386;BME280;34644;47.964;7.982;2023-02-14T20:00:20;97925.25;;;16.58;52.00
48386;BME280;34644;47.964;7.982;2023-02-14T20:07:21;97930.81;;;16.56;52.08
48386;BME280;34644;47.964;7.982;2023-02-14T20:14:22;97923.88;;;16.55;52.00
48386;BME280;34644;47.964;7.982;2023-02-14T20:21:23;97928.63;;;16.53;51.99
48386;BME280;34644;47.964;7.982;2023-02-14T20:28:26;97922.75;;;16.51;52.08
48386;BME280;34644;47.964;7.982;2023-02-14T20:35:27;97906.19;;;16.49;52.09
48386;BME280;34644;47.964;7.982;2023-02-14T20:42:30;97905.69;;;15.54;42.54
48386;BME280;34644;47.964;7.982;2023-02-14T20:49:30;97899.81;;;14.81;41.84
48386;BME280;34644;47.964;7.982;2023-02-14T20:56:31;97890.44;;;15.49;42.62
48386;BME280;34644;47.964;7.982;2023-02-14T21:03:32;97885.44;;;15.65;45.58
48386;BME280;34644;47.964;7.982;2023-02-14T21:10:34;97886.72;;;15.74;47.06
48386;BME280;34644;47.964;7.982;2023-02-14T21:17:34;97883.38;;;15.79;47.70
48386;BME280;34644;47.964;7.982;2023-02-14T21:24:35;97879.41;;;15.81;48.40
48386;BME280;34644;47.964;7.982;2023-02-14T21:31:35;97885.34;;;15.83;48.79
48386;BME280;34644;47.964;7.982;2023-02-14T21:38:35;97879.19;;;15.83;49.00
48386;BME280;34644;47.964;7.982;2023-02-14T21:45:35;97879.78;;;15.85;49.39
48386;BME280;34644;47.964;7.982;2023-02-14T21:52:55;97884.25;;;15.84;49.66
48386;BME280;34644;47.964;7.982;2023-02-14T21:59:56;97870.97;;;15.84;49.97
48386;BME280;34644;47.964;7.982;2023-02-14T22:06:56;97878.94;;;15.84;49.93
48386;BME280;34644;47.964;7.982;2023-02-14T22:13:56;97880.56;;;15.85;50.14
48386;BME280;34644;47.964;7.982;2023-02-14T22:21:03;97885.09;;;15.85;50.29
48386;BME280;34644;47.964;7.982;2023-02-14T22:28:04;97865.66;;;15.84;50.43
48386;BME280;34644;47.964;7.982;2023-02-14T22:35:04;97853.44;;;15.83;50.46
48386;BME280;34644;47.964;7.982;2023-02-14T22:42:05;97848.13;;;15.83;50.46
48386;BME280;34644;47.964;7.982;2023-02-14T22:49:05;97849.16;;;15.82;50.82
48386;BME280;34644;47.964;7.982;2023-02-14T23:03:12;97844.06;;;15.81;50.82
48386;BME280;34644;47.964;7.982;2023-02-14T23:10:12;97834.50;;;15.80;50.83
48386;BME280;34644;47.964;7.982;2023-02-14T23:17:13;97840.06;;;15.78;50.93
48386;BME280;34644;47.964;7.982;2023-02-14T23:24:23;97834.72;;;15.78;50.94
48386;BME280;34644;47.964;7.982;2023-02-14T23:31:23;97829.66;;;15.77;51.14
48386;BME280;34644;47.964;7.982;2023-02-14T23:38:24;97831.44;;;15.76;51.26
48386;BME280;34644;47.964;7.982;2023-02-14T23:45:24;97837.84;;;15.75;51.23
48386;BME280;34644;47.964;7.982;2023-02-14T23:52:33;97833.56;;;15.74;51.32
48386;BME280;34644;47.964;7.982;2023-02-14T23:59:33;97830.88;;;15.74;51.23
